createdAt,value
2023-01-05T00:01:50.845Z,98.26
2023-01-05T00:04:19.141Z,97.90
2023-01-05T00:06:46.676Z,97.78
2023-01-05T00:09:18.006Z,97.31
2023-01-05T00:12:03.863Z,97.58
2023-01-05T00:14:52.071Z,97.81
2023-01-05T00:17:42.427Z,96.90
2023-01-05T00:20:39.494Z,97.42
2023-01-05T00:23:08.988Z,97.82
2023-01-05T00:25:41.958Z,97.81
2023-01-05T00:28:09.506Z,97.80
2023-01-05T00:30:42.677Z,97.88
2023-01-05T00:33:16.853Z,98.08
2023-01-05T00:35:44.643Z,98.01
2023-01-05T00:38:12.253Z,97.85
2023-01-05T00:40:40.181Z,97.67
2023-01-05T00:43:07.488Z,97.47
2023-01-05T00:45:35.229Z,97.37
2023-01-05T00:48:02.543Z,97.21
2023-01-05T00:50:30.131Z,96.95
2023-01-05T00:52:57.387Z,96.88
2023-01-05T00:55:24.531Z,97.10
2023-01-05T00:57:52.012Z,96.89
2023-01-05T01:00:20.065Z,98.42
2023-01-05T01:02:51.821Z,100.00
2023-01-05T01:05:19.808Z,99.63
2023-01-05T01:07:48.772Z,100.00
2023-01-05T01:10:16.341Z,99.62
2023-01-05T01:12:43.851Z,99.31
2023-01-05T01:15:11.479Z,98.72
2023-01-05T01:17:39.063Z,98.03
2023-01-05T01:20:07.343Z,97.97
2023-01-05T01:22:34.890Z,97.71
2023-01-05T01:25:02.090Z,97.25
2023-01-05T01:27:32.182Z,97.12
2023-01-05T01:29:59.433Z,97.11
2023-01-05T01:32:26.986Z,97.02
2023-01-05T01:34:55.360Z,97.37
2023-01-05T01:37:22.910Z,97.70
2023-01-05T01:39:50.134Z,98.24
2023-01-05T01:42:17.721Z,98.94
2023-01-05T01:44:51.721Z,99.62
2023-01-05T01:47:32.621Z,100.00
2023-01-05T01:50:08.561Z,100.00
2023-01-05T01:52:38.113Z,100.00
2023-01-05T01:55:07.151Z,99.76
2023-01-05T01:57:37.196Z,99.08
2023-01-05T02:00:08.831Z,98.35
2023-01-05T02:02:36.590Z,97.90
2023-01-05T02:05:11.232Z,97.29
2023-01-05T02:07:47.363Z,96.63
2023-01-05T02:10:32.433Z,96.20
2023-01-05T02:13:31.711Z,96.62
2023-01-05T02:16:05.141Z,96.19
2023-01-05T02:19:24.826Z,96.03
2023-01-05T02:22:18.867Z,95.67
2023-01-05T02:25:23.952Z,96.38
2023-01-05T02:28:37.034Z,96.10
2023-01-05T02:31:25.226Z,96.61
2023-01-05T02:34:48.787Z,96.50
2023-01-05T02:37:30.647Z,96.55
2023-01-05T02:40:08.578Z,96.44
2023-01-05T02:42:39.636Z,96.01
2023-01-05T02:45:09.285Z,96.36
2023-01-05T02:47:44.245Z,97.35
2023-01-05T02:50:20.290Z,97.94
2023-01-05T02:53:24.440Z,98.23
2023-01-05T02:56:12.752Z,97.84
2023-01-05T02:59:08.503Z,97.74
2023-01-05T03:01:59.070Z,97.11
2023-01-05T03:04:40.844Z,97.36
2023-01-05T03:07:14.699Z,97.58
2023-01-05T03:09:45.516Z,97.70
2023-01-05T03:12:52.085Z,97.87
2023-01-05T03:15:39.212Z,97.45
2023-01-05T03:18:20.431Z,96.66
2023-01-05T03:20:52.447Z,96.24
2023-01-05T03:23:40.740Z,96.20
2023-01-05T03:26:31.086Z,95.68
2023-01-05T03:29:22.005Z,94.61
2023-01-05T03:32:19.898Z,93.88
2023-01-05T03:35:11.582Z,94.40
2023-01-05T03:38:18.527Z,95.97
2023-01-05T03:40:47.379Z,97.05
2023-01-05T03:43:15.383Z,97.61
2023-01-05T03:45:53.197Z,99.13
2023-01-05T03:48:22.673Z,100.00
2023-01-05T03:50:50.434Z,100.00
2023-01-05T03:53:18.487Z,100.00
2023-01-05T03:55:46.193Z,100.00
2023-01-05T03:58:13.779Z,100.00
2023-01-05T04:00:41.150Z,100.00
2023-01-05T04:03:10.608Z,100.00
2023-01-05T04:05:38.211Z,100.00
2023-01-05T04:08:06.575Z,100.00
2023-01-05T04:10:34.070Z,100.00
2023-01-05T04:13:01.672Z,100.00
2023-01-05T04:15:29.218Z,100.00
2023-01-05T04:17:56.885Z,100.00
2023-01-05T04:20:24.138Z,100.00
2023-01-05T04:22:51.686Z,100.00
2023-01-05T04:25:18.990Z,100.00
2023-01-05T04:27:46.532Z,100.00
2023-01-05T04:30:13.864Z,100.00
2023-01-05T04:32:41.449Z,100.00
2023-01-05T04:35:11.533Z,100.00
2023-01-05T04:37:39.851Z,100.00
2023-01-05T04:40:07.874Z,100.00
2023-01-05T04:42:35.414Z,100.00
2023-01-05T04:45:02.680Z,100.00
2023-01-05T04:47:30.219Z,100.00
2023-01-05T04:49:57.488Z,100.00
2023-01-05T04:52:25.036Z,100.00
2023-01-05T04:54:52.368Z,100.00
2023-01-05T04:57:19.939Z,100.00
2023-01-05T04:59:47.248Z,100.00
2023-01-05T05:02:15.254Z,100.00
2023-01-05T05:04:42.667Z,100.00
2023-01-05T05:07:10.742Z,100.00
2023-01-05T05:09:38.066Z,100.00
2023-01-05T05:12:05.924Z,100.00
2023-01-05T05:14:33.273Z,100.00
2023-01-05T05:17:00.925Z,100.00
2023-01-05T05:19:28.236Z,100.00
2023-01-05T05:21:55.821Z,100.00
2023-01-05T05:24:24.521Z,100.00
2023-01-05T05:26:52.201Z,100.00
2023-01-05T05:29:19.483Z,100.00
2023-01-05T05:31:47.222Z,100.00
2023-01-05T05:34:14.908Z,100.00
2023-01-05T05:36:42.754Z,100.00
2023-01-05T05:39:13.322Z,100.00
2023-01-05T05:41:41.155Z,100.00
2023-01-05T05:44:09.254Z,100.00
2023-01-05T05:46:36.912Z,100.00
2023-01-05T05:49:04.903Z,100.00
2023-01-05T05:51:32.949Z,100.00
2023-01-05T05:54:00.678Z,100.00
2023-01-05T05:56:28.364Z,100.00
2023-01-05T05:59:01.047Z,100.00
2023-01-05T06:01:29.984Z,100.00
2023-01-05T06:03:57.475Z,100.00
2023-01-05T06:06:25.043Z,100.00
2023-01-05T06:08:52.501Z,100.00
2023-01-05T06:11:20.148Z,100.00
2023-01-05T06:13:48.934Z,100.00
2023-01-05T06:16:16.948Z,100.00
2023-01-05T06:18:44.216Z,100.00
2023-01-05T06:21:11.828Z,100.00
2023-01-05T06:23:39.132Z,100.00
2023-01-05T06:26:06.987Z,100.00
2023-01-05T06:28:34.290Z,100.00
2023-01-05T06:31:01.974Z,100.00
2023-01-05T06:33:29.260Z,100.00
2023-01-05T06:35:58.811Z,100.00
2023-01-05T06:38:26.584Z,100.00
2023-01-05T06:40:54.808Z,100.00
2023-01-05T06:43:22.231Z,100.00
2023-01-05T06:45:49.947Z,100.00
2023-01-05T06:48:17.298Z,100.00
2023-01-05T06:50:45.017Z,100.00
2023-01-05T06:53:12.316Z,100.00
2023-01-05T06:55:40.548Z,100.00
2023-01-05T06:58:07.844Z,100.00
2023-01-05T07:00:35.506Z,100.00
2023-01-05T07:03:03.259Z,100.00
2023-01-05T07:05:31.481Z,100.00
2023-01-05T07:07:58.800Z,100.00
2023-01-05T07:10:26.411Z,100.00
2023-01-05T07:12:53.671Z,100.00
2023-01-05T07:15:21.264Z,100.00
2023-01-05T07:17:48.611Z,100.00
2023-01-05T07:20:17.429Z,100.00
2023-01-05T07:22:44.719Z,100.00
2023-01-05T07:25:12.523Z,100.00
2023-01-05T07:27:39.776Z,100.00
2023-01-05T07:30:08.468Z,100.00
2023-01-05T07:32:35.855Z,100.00
2023-01-05T07:35:03.880Z,100.00
2023-01-05T07:37:31.245Z,100.00
2023-01-05T07:39:58.791Z,100.00
2023-01-05T07:42:26.302Z,100.00
2023-01-05T07:44:53.990Z,100.00
2023-01-05T07:47:21.424Z,100.00
2023-01-05T07:49:49.053Z,100.00
2023-01-05T07:52:17.854Z,100.00
2023-01-05T07:54:45.587Z,100.00
2023-01-05T07:57:12.896Z,100.00
2023-01-05T07:59:40.405Z,100.00
2023-01-05T08:02:09.835Z,100.00
2023-01-05T08:04:37.583Z,100.00
2023-01-05T08:07:11.423Z,100.00
2023-01-05T08:09:58.157Z,100.00
2023-01-05T08:12:25.833Z,100.00
2023-01-05T08:14:53.458Z,100.00
2023-01-05T08:17:20.830Z,100.00
2023-01-05T08:19:48.486Z,100.00
2023-01-05T08:22:15.862Z,100.00
2023-01-05T08:24:43.432Z,100.00
2023-01-05T08:27:10.799Z,100.00
2023-01-05T08:29:38.430Z,100.00
2023-01-05T08:32:06.034Z,100.00
2023-01-05T08:34:35.006Z,100.00
2023-01-05T08:37:02.539Z,100.00
2023-01-05T08:39:30.169Z,100.00
2023-01-05T08:42:02.353Z,98.75
2023-01-05T08:44:30.692Z,97.42
2023-01-05T08:46:58.200Z,97.00
2023-01-05T08:49:25.900Z,95.72
2023-01-05T08:51:53.338Z,94.48
2023-01-05T08:54:20.957Z,94.40
2023-01-05T08:56:50.669Z,93.28
2023-01-05T08:59:18.760Z,93.19
2023-01-05T09:01:46.375Z,93.45
2023-01-05T09:04:14.303Z,92.77
2023-01-05T09:06:41.790Z,93.58
2023-01-05T09:09:10.490Z,94.13
2023-01-05T09:11:38.225Z,94.85
2023-01-05T09:14:05.836Z,95.03
2023-01-05T09:17:05.283Z,94.59
2023-01-05T09:19:23.070Z,94.34
2023-01-05T09:21:50.895Z,92.03
2023-01-05T09:24:19.334Z,89.84
2023-01-05T09:26:47.090Z,88.55
2023-01-05T09:29:14.913Z,87.80
2023-01-05T09:31:42.598Z,87.75
2023-01-05T09:34:11.224Z,86.12
2023-01-05T09:36:41.735Z,82.22
2023-01-05T09:39:15.471Z,75.76
2023-01-05T09:42:00.980Z,66.79
2023-01-05T09:44:42.371Z,67.67
2023-01-05T09:47:43.135Z,70.34
2023-01-05T09:50:33.569Z,73.98
2023-01-05T09:53:01.290Z,76.05
2023-01-05T09:55:32.743Z,77.61
2023-01-05T09:58:16.572Z,79.63
2023-01-05T10:01:07.625Z,80.68
2023-01-05T10:06:35.810Z,74.81
2023-01-05T10:09:05.547Z,65.26
2023-01-05T10:12:15.557Z,63.35
2023-01-05T10:14:53.449Z,64.57
2023-01-05T10:17:41.293Z,65.38
2023-01-05T10:20:50.630Z,66.78
2023-01-05T10:23:46.370Z,67.71
2023-01-05T10:26:24.973Z,68.03
2023-01-05T10:29:18.223Z,69.42
2023-01-05T10:32:22.037Z,67.85
2023-01-05T10:35:00.764Z,56.80
2023-01-05T10:37:41.258Z,53.13
2023-01-05T10:40:23.066Z,56.13
2023-01-05T10:43:21.584Z,59.10
2023-01-05T10:46:19.890Z,61.92
2023-01-05T10:48:40.334Z,65.15
2023-01-05T10:51:10.973Z,68.24
2023-01-05T10:53:42.633Z,69.17
2023-01-05T10:56:10.499Z,71.78
2023-01-05T10:58:41.013Z,73.33
2023-01-05T11:01:31.008Z,73.54
2023-01-05T11:04:34.422Z,74.65
2023-01-05T11:07:06.841Z,75.52
2023-01-05T11:09:41.438Z,73.58
2023-01-05T11:12:22.686Z,72.69
2023-01-05T11:14:59.084Z,72.20
2023-01-05T11:17:30.009Z,71.54
2023-01-05T11:19:58.681Z,70.04
2023-01-05T11:22:44.540Z,60.66
2023-01-05T11:25:33.959Z,56.60
2023-01-05T11:28:17.941Z,53.42
2023-01-05T11:31:05.977Z,56.39
2023-01-05T11:33:40.340Z,59.29
2023-01-05T11:36:13.073Z,60.29
2023-01-05T11:38:41.060Z,61.68
2023-01-05T11:41:12.851Z,61.64
2023-01-05T11:43:40.502Z,61.65
2023-01-05T11:46:09.338Z,62.07
2023-01-05T11:48:36.964Z,63.71
2023-01-05T11:51:04.905Z,65.34
2023-01-05T11:53:35.517Z,65.86
2023-01-05T11:56:22.192Z,66.85
2023-01-05T11:58:54.660Z,67.17
2023-01-05T12:02:01.274Z,67.38
2023-01-05T12:04:52.551Z,67.27
2023-01-05T12:07:37.206Z,68.48
2023-01-05T12:10:16.587Z,69.00
2023-01-05T12:13:12.774Z,68.92
2023-01-05T12:16:04.345Z,70.18
2023-01-05T12:19:19.778Z,70.24
2023-01-05T12:22:12.999Z,70.90
2023-01-05T12:25:22.280Z,71.43
2023-01-05T12:28:40.989Z,71.42
2023-01-05T12:34:00.368Z,70.92
2023-01-05T12:35:22.615Z,70.20
2023-01-05T12:38:01.596Z,69.37
2023-01-05T12:41:03.914Z,68.49
2023-01-05T12:43:34.189Z,68.08
2023-01-05T12:46:43.259Z,65.86
2023-01-05T12:50:06.986Z,66.26
2023-01-05T12:53:15.502Z,68.35
2023-01-05T12:55:50.406Z,68.84
2023-01-05T12:58:38.340Z,70.21
2023-01-05T13:01:19.906Z,70.26
2023-01-05T13:04:34.326Z,71.01
2023-01-05T13:07:15.647Z,71.65
2023-01-05T13:09:48.268Z,71.83
2023-01-05T13:12:16.390Z,72.51
2023-01-05T13:15:14.140Z,72.90
2023-01-05T13:17:50.719Z,73.33
2023-01-05T13:20:47.890Z,75.67
2023-01-05T13:23:25.980Z,77.38
2023-01-05T13:26:17.836Z,79.10
2023-01-05T13:28:57.975Z,79.40
2023-01-05T13:31:37.403Z,80.79
2023-01-05T13:34:45.281Z,80.67
2023-01-05T13:37:55.573Z,81.12
2023-01-05T13:40:39.985Z,78.40
2023-01-05T13:43:44.398Z,73.75
2023-01-05T13:46:35.235Z,73.36
2023-01-05T13:49:17.281Z,73.44
2023-01-05T13:52:19.005Z,76.81
2023-01-05T13:55:01.575Z,78.41
2023-01-05T13:57:41.411Z,79.72
2023-01-05T14:00:26.335Z,80.55
2023-01-05T14:03:13.356Z,82.63
2023-01-05T14:05:54.335Z,84.84
2023-01-05T14:08:28.118Z,86.48
2023-01-05T14:11:25.453Z,84.43
2023-01-05T14:14:08.653Z,86.95
2023-01-05T14:16:36.070Z,89.03
2023-01-05T14:19:23.060Z,89.72
2023-01-05T14:21:50.362Z,90.53
2023-01-05T14:27:23.782Z,91.07
2023-01-05T14:29:55.520Z,86.01
2023-01-05T14:32:34.757Z,83.49
2023-01-05T14:35:28.837Z,85.90
2023-01-05T14:38:25.148Z,87.55
2023-01-05T14:40:58.486Z,88.53
2023-01-05T14:43:34.389Z,89.98
2023-01-05T14:46:17.995Z,90.04
2023-01-05T14:49:02.324Z,91.25
2023-01-05T14:51:33.291Z,92.37
2023-01-05T14:54:04.776Z,93.23
2023-01-05T14:56:37.704Z,93.34
2023-01-05T14:59:26.018Z,94.26
2023-01-05T15:02:02.902Z,95.30
2023-01-05T15:04:39.890Z,95.75
2023-01-05T15:07:34.727Z,96.40
2023-01-05T15:11:01.888Z,97.49
2023-01-05T15:14:35.273Z,97.66
2023-01-05T15:17:11.371Z,96.66
2023-01-05T15:20:01.628Z,94.74
2023-01-05T15:23:05.661Z,93.56
2023-01-05T15:26:10.288Z,92.35
2023-01-05T15:29:17.126Z,91.81
2023-01-05T15:31:55.236Z,92.05
2023-01-05T15:34:42.900Z,91.42
2023-01-05T15:37:33.616Z,90.36
2023-01-05T15:40:04.412Z,90.38
2023-01-05T15:42:44.657Z,90.22
2023-01-05T15:45:37.273Z,90.19
2023-01-05T15:48:14.808Z,90.28
2023-01-05T15:50:55.076Z,90.49
2023-01-05T15:53:33.086Z,90.40
2023-01-05T15:56:01.695Z,90.11
2023-01-05T15:58:33.004Z,90.55
2023-01-05T16:01:15.448Z,90.19
2023-01-05T16:03:46.552Z,90.44
2023-01-05T16:06:28.196Z,90.56
2023-01-05T16:09:07.515Z,90.23
2023-01-05T16:11:42.763Z,90.02
2023-01-05T16:14:29.122Z,89.85
2023-01-05T16:17:08.252Z,90.12
2023-01-05T16:19:43.879Z,90.50
2023-01-05T16:22:17.143Z,90.49
2023-01-05T16:25:12.426Z,89.53
2023-01-05T16:27:44.450Z,88.82
2023-01-05T16:30:38.049Z,89.81
2023-01-05T16:33:05.610Z,90.36
2023-01-05T16:35:47.018Z,91.85
2023-01-05T16:38:22.121Z,92.35
2023-01-05T16:40:49.852Z,93.59
2023-01-05T16:43:43.895Z,95.04
2023-01-05T16:46:20.296Z,95.18
2023-01-05T16:48:54.032Z,95.11
2023-01-05T16:51:25.162Z,94.21
2023-01-05T16:54:13.491Z,94.66
2023-01-05T16:57:01.563Z,94.79
2023-01-05T16:59:52.895Z,94.40
2023-01-05T17:02:49.203Z,93.53
2023-01-05T17:05:26.204Z,92.78
2023-01-05T17:08:07.879Z,92.55
2023-01-05T17:10:35.366Z,92.45
2023-01-05T17:13:08.263Z,92.60
2023-01-05T17:15:36.775Z,91.98
2023-01-05T17:18:34.381Z,90.61
2023-01-05T17:21:06.141Z,90.05
2023-01-05T17:23:47.320Z,89.17
2023-01-05T17:26:45.467Z,88.15
2023-01-05T17:29:29.895Z,88.42
2023-01-05T17:31:58.243Z,88.31
2023-01-05T17:34:26.125Z,86.60
2023-01-05T17:36:59.754Z,86.88
2023-01-05T17:39:27.466Z,87.25
2023-01-05T17:42:14.791Z,87.78
2023-01-05T17:44:42.477Z,87.30
2023-01-05T17:47:09.925Z,87.04
2023-01-05T17:49:38.489Z,86.88
2023-01-05T17:52:05.954Z,87.77
2023-01-05T17:54:33.691Z,87.57
2023-01-05T17:57:01.136Z,86.21
2023-01-05T17:59:28.905Z,85.99
2023-01-05T18:01:56.502Z,85.13
2023-01-05T18:04:25.490Z,84.70
2023-01-05T18:06:54.762Z,82.58
2023-01-05T18:11:51.773Z,81.39
2023-01-05T18:14:20.564Z,81.28
2023-01-05T18:16:47.896Z,80.17
2023-01-05T18:19:15.809Z,79.51
2023-01-05T18:24:15.682Z,77.70
2023-01-05T18:26:43.074Z,77.46
2023-01-05T18:29:10.728Z,77.37
2023-01-05T18:31:40.185Z,77.50
2023-01-05T18:34:09.838Z,77.01
2023-01-05T18:36:37.309Z,77.08
2023-01-05T18:39:05.274Z,77.54
2023-01-05T18:41:32.805Z,77.01
2023-01-05T18:44:00.446Z,77.66
2023-01-05T18:46:30.481Z,77.78
2023-01-05T18:48:58.312Z,78.15
2023-01-05T18:51:25.751Z,77.62
2023-01-05T18:53:53.971Z,78.14
2023-01-05T18:56:21.313Z,77.87
2023-01-05T18:58:49.316Z,78.34
2023-01-05T19:01:20.227Z,78.31
2023-01-05T19:03:50.643Z,78.82
2023-01-05T19:06:25.484Z,78.94
2023-01-05T19:08:53.236Z,79.13
2023-01-05T19:11:28.170Z,79.20
2023-01-05T19:13:59.259Z,79.34
2023-01-05T19:16:31.565Z,79.71
2023-01-05T19:19:05.212Z,79.41
2023-01-05T19:21:36.277Z,79.52
2023-01-05T19:24:07.063Z,79.41
2023-01-05T19:26:37.081Z,79.17
2023-01-05T19:29:06.581Z,79.15
2023-01-05T19:31:34.558Z,79.70
2023-01-05T19:34:02.520Z,79.91
2023-01-05T19:36:35.000Z,79.88
2023-01-05T19:39:16.405Z,79.94
2023-01-05T19:41:47.211Z,79.99
2023-01-05T19:44:18.539Z,80.64
2023-01-05T19:46:49.329Z,81.12
2023-01-05T19:49:21.003Z,82.10
2023-01-05T19:51:48.857Z,82.93
2023-01-05T19:54:17.348Z,83.09
2023-01-05T19:56:46.192Z,83.85
2023-01-05T19:59:33.452Z,84.63
2023-01-05T20:02:05.792Z,85.41
2023-01-05T20:04:34.325Z,86.40
2023-01-05T20:07:03.958Z,88.11
2023-01-05T20:09:32.356Z,89.10
2023-01-05T20:12:13.235Z,89.96
2023-01-05T20:14:43.096Z,90.40
2023-01-05T20:17:12.831Z,91.71
2023-01-05T20:19:41.100Z,91.96
2023-01-05T20:22:14.268Z,93.14
2023-01-05T20:24:43.451Z,94.68
2023-01-05T20:27:15.079Z,95.01
2023-01-05T20:29:42.718Z,95.28
2023-01-05T20:32:18.270Z,95.64
2023-01-05T20:35:00.354Z,96.12
2023-01-05T20:37:31.085Z,96.78
2023-01-05T20:40:01.776Z,97.62
2023-01-05T20:42:30.846Z,97.62
2023-01-05T20:44:58.798Z,97.61
2023-01-05T20:47:26.180Z,97.25
2023-01-05T20:49:54.700Z,96.45
2023-01-05T20:52:22.124Z,95.82
2023-01-05T20:54:50.050Z,93.73
2023-01-05T20:57:17.597Z,93.44
2023-01-05T20:59:45.456Z,92.55
2023-01-05T21:02:23.089Z,92.26
2023-01-05T21:04:53.545Z,92.35
2023-01-05T21:07:22.059Z,91.52
2023-01-05T21:09:51.755Z,91.03
2023-01-05T21:12:20.051Z,91.55
2023-01-05T21:14:47.825Z,91.53
2023-01-05T21:17:15.377Z,90.64
2023-01-05T21:19:44.309Z,90.82
2023-01-05T21:22:11.734Z,91.23
2023-01-05T21:24:39.608Z,91.37
2023-01-05T21:27:07.126Z,91.00
2023-01-05T21:29:34.975Z,91.13
2023-01-05T21:32:02.578Z,91.42
2023-01-05T21:34:30.342Z,91.73
2023-01-05T21:36:57.671Z,91.40
2023-01-05T21:39:28.572Z,91.54
2023-01-05T21:42:14.643Z,92.13
2023-01-05T21:44:42.356Z,91.23
2023-01-05T21:47:09.908Z,90.27
2023-01-05T21:49:37.546Z,89.05
2023-01-05T21:52:24.542Z,89.04
2023-01-05T21:55:11.135Z,88.68
2023-01-05T21:57:38.642Z,89.25
2023-01-05T22:00:07.681Z,89.46
2023-01-05T22:02:35.112Z,88.81
2023-01-05T22:05:03.353Z,88.63
2023-01-05T22:07:30.729Z,88.94
2023-01-05T22:09:58.388Z,89.59
2023-01-05T22:12:25.855Z,89.62
2023-01-05T22:14:53.435Z,88.86
2023-01-05T22:17:20.861Z,89.41
2023-01-05T22:19:48.522Z,88.80
2023-01-05T22:22:15.875Z,88.37
2023-01-05T22:24:43.478Z,88.04
2023-01-05T22:27:10.954Z,87.56
2023-01-05T22:29:38.652Z,87.74
2023-01-05T22:32:06.835Z,86.51
2023-01-05T22:34:34.578Z,85.56
2023-01-05T22:37:02.426Z,85.41
2023-01-05T22:39:30.133Z,85.51
2023-01-05T22:41:57.432Z,84.92
2023-01-05T22:44:25.742Z,85.69
2023-01-05T22:46:53.423Z,85.41
2023-01-05T22:49:20.989Z,85.60
2023-01-05T22:51:48.272Z,85.14
2023-01-05T22:54:15.885Z,85.05
2023-01-05T22:56:43.189Z,85.28
2023-01-05T22:59:10.764Z,85.69
2023-01-05T23:01:43.648Z,85.47
2023-01-05T23:04:12.411Z,85.05
2023-01-05T23:06:40.746Z,84.14
2023-01-05T23:09:14.421Z,84.11
2023-01-05T23:11:43.022Z,83.81
2023-01-05T23:14:12.619Z,84.07
2023-01-05T23:16:40.117Z,83.92
2023-01-05T23:19:08.867Z,83.37
2023-01-05T23:21:37.051Z,81.56
2023-01-05T23:24:05.332Z,81.18
2023-01-05T23:26:32.668Z,81.21
2023-01-05T23:29:01.053Z,80.87
2023-01-05T23:31:28.751Z,79.84
2023-01-05T23:33:57.921Z,79.28
2023-01-05T23:36:25.818Z,79.71
2023-01-05T23:38:53.345Z,78.50
2023-01-05T23:41:20.795Z,78.34
2023-01-05T23:43:48.465Z,78.16
2023-01-05T23:46:20.696Z,78.23
2023-01-05T23:48:51.648Z,78.08
2023-01-05T23:51:19.159Z,76.90
2023-01-05T23:53:50.506Z,77.27
2023-01-05T23:56:25.133Z,77.20
2023-01-05T23:59:05.327Z,76.91
